sensor_id;sensor_type;location;lat;lon;timestamp;temperature;humidity
80540;DHT22;69869;48.036;15.780;2023-08-01T00:00:39;22.10;87.00
80540;DHT22;69869;48.036;15.780;2023-08-01T00:03:04;22.10;86.80
80540;DHT22;69869;48.036;15.780;2023-08-01T00:05:30;22.10;87.20
80540;DHT22;69869;48.036;15.780;2023-08-01T00:07:56;22.10;87.10
80540;DHT22;69869;48.036;15.780;2023-08-01T00:10:21;22.10;87.00
80540;DHT22;69869;48.036;15.780;2023-08-01T00:12:47;22.10;87.10
80540;DHT22;69869;48.036;15.780;2023-08-01T00:15:13;22.10;86.30
80540;DHT22;69869;48.036;15.780;2023-08-01T00:17:38;22.10;86.60
80540;DHT22;69869;48.036;15.780;2023-08-01T00:20:05;22.10;86.80
80540;DHT22;69869;48.036;15.780;2023-08-01T00:22:30;22.10;86.40
80540;DHT22;69869;48.036;15.780;2023-08-01T00:24:56;22.10;87.00
80540;DHT22;69869;48.036;15.780;2023-08-01T00:27:22;22.10;86.70
80540;DHT22;69869;48.036;15.780;2023-08-01T00:29:47;22.10;86.80
80540;DHT22;69869;48.036;15.780;2023-08-01T00:32:13;22.10;86.90
80540;DHT22;69869;48.036;15.780;2023-08-01T00:34:39;22.10;87.10
80540;DHT22;69869;48.036;15.780;2023-08-01T00:37:05;22.10;86.10
80540;DHT22;69869;48.036;15.780;2023-08-01T00:39:31;22.10;87.10
80540;DHT22;69869;48.036;15.780;2023-08-01T00:41:56;22.10;87.80
80540;DHT22;69869;48.036;15.780;2023-08-01T00:44:22;22.10;87.10
80540;DHT22;69869;48.036;15.780;2023-08-01T00:46:48;22.10;87.20
80540;DHT22;69869;48.036;15.780;2023-08-01T00:49:15;22.10;87.20
80540;DHT22;69869;48.036;15.780;2023-08-01T00:51:41;22.10;87.10
80540;DHT22;69869;48.036;15.780;2023-08-01T00:54:08;22.10;86.90
80540;DHT22;69869;48.036;15.780;2023-08-01T00:56:34;22.10;86.80
80540;DHT22;69869;48.036;15.780;2023-08-01T00:59:00;22.10;87.00
80540;DHT22;69869;48.036;15.780;2023-08-01T01:01:26;22.10;87.20
80540;DHT22;69869;48.036;15.780;2023-08-01T01:03:52;22.10;87.20
80540;DHT22;69869;48.036;15.780;2023-08-01T01:06:41;22.10;87.30
80540;DHT22;69869;48.036;15.780;2023-08-01T01:09:19;22.10;87.20
80540;DHT22;69869;48.036;15.780;2023-08-01T01:11:45;22.10;87.10
80540;DHT22;69869;48.036;15.780;2023-08-01T01:14:11;22.10;87.10
80540;DHT22;69869;48.036;15.780;2023-08-01T01:16:37;22.10;87.10
80540;DHT22;69869;48.036;15.780;2023-08-01T01:19:09;22.10;87.30
80540;DHT22;69869;48.036;15.780;2023-08-01T01:22:00;22.10;87.50
80540;DHT22;69869;48.036;15.780;2023-08-01T01:24:27;22.10;87.40
80540;DHT22;69869;48.036;15.780;2023-08-01T01:26:54;22.10;87.20
80540;DHT22;69869;48.036;15.780;2023-08-01T01:29:21;22.10;87.20
80540;DHT22;69869;48.036;15.780;2023-08-01T01:31:47;22.10;87.30
80540;DHT22;69869;48.036;15.780;2023-08-01T01:34:13;22.10;87.20
80540;DHT22;69869;48.036;15.780;2023-08-01T01:36:39;22.10;87.30
80540;DHT22;69869;48.036;15.780;2023-08-01T01:39:05;22.10;87.30
80540;DHT22;69869;48.036;15.780;2023-08-01T01:41:30;22.10;87.30
80540;DHT22;69869;48.036;15.780;2023-08-01T01:43:56;22.10;87.30
80540;DHT22;69869;48.036;15.780;2023-08-01T01:46:22;22.10;87.30
80540;DHT22;69869;48.036;15.780;2023-08-01T01:48:47;22.10;87.40
80540;DHT22;69869;48.036;15.780;2023-08-01T01:51:13;22.10;87.30
80540;DHT22;69869;48.036;15.780;2023-08-01T01:53:39;22.10;87.10
80540;DHT22;69869;48.036;15.780;2023-08-01T01:56:04;22.10;87.30
80540;DHT22;69869;48.036;15.780;2023-08-01T01:58:30;22.10;87.40
80540;DHT22;69869;48.036;15.780;2023-08-01T02:00:56;22.10;87.30
80540;DHT22;69869;48.036;15.780;2023-08-01T02:03:21;22.10;87.20
80540;DHT22;69869;48.036;15.780;2023-08-01T02:05:47;22.10;87.40
80540;DHT22;69869;48.036;15.780;2023-08-01T02:08:14;22.10;87.30
80540;DHT22;69869;48.036;15.780;2023-08-01T02:10:39;22.10;87.40
80540;DHT22;69869;48.036;15.780;2023-08-01T02:13:05;22.10;87.30
80540;DHT22;69869;48.036;15.780;2023-08-01T02:15:31;22.10;87.40
80540;DHT22;69869;48.036;15.780;2023-08-01T02:17:56;22.10;87.30
80540;DHT22;69869;48.036;15.780;2023-08-01T02:20:22;22.10;87.20
80540;DHT22;69869;48.036;15.780;2023-08-01T02:22:48;22.10;87.40
80540;DHT22;69869;48.036;15.780;2023-08-01T02:25:13;22.10;87.40
80540;DHT22;69869;48.036;15.780;2023-08-01T02:27:39;22.10;87.40
80540;DHT22;69869;48.036;15.780;2023-08-01T02:30:05;22.10;87.40
80540;DHT22;69869;48.036;15.780;2023-08-01T02:32:31;22.10;87.40
80540;DHT22;69869;48.036;15.780;2023-08-01T02:34:57;22.10;87.40
80540;DHT22;69869;48.036;15.780;2023-08-01T02:37:22;22.10;87.40
80540;DHT22;69869;48.036;15.780;2023-08-01T02:39:48;22.10;87.20
80540;DHT22;69869;48.036;15.780;2023-08-01T02:42:14;22.10;87.40
80540;DHT22;69869;48.036;15.780;2023-08-01T02:44:39;22.10;87.40
80540;DHT22;69869;48.036;15.780;2023-08-01T02:47:05;22.10;87.40
80540;DHT22;69869;48.036;15.780;2023-08-01T02:49:31;22.10;87.40
80540;DHT22;69869;48.036;15.780;2023-08-01T02:51:57;22.10;87.40
80540;DHT22;69869;48.036;15.780;2023-08-01T02:54:24;22.10;87.40
80540;DHT22;69869;48.036;15.780;2023-08-01T02:56:50;22.10;87.40
80540;DHT22;69869;48.036;15.780;2023-08-01T02:59:16;22.10;87.40
80540;DHT22;69869;48.036;15.780;2023-08-01T03:01:44;22.10;87.30
80540;DHT22;69869;48.036;15.780;2023-08-01T03:04:10;22.10;87.20
80540;DHT22;69869;48.036;15.780;2023-08-01T03:06:37;22.10;87.30
80540;DHT22;69869;48.036;15.780;2023-08-01T03:09:03;22.10;87.40
80540;DHT22;69869;48.036;15.780;2023-08-01T03:11:33;22.10;87.40
80540;DHT22;69869;48.036;15.780;2023-08-01T03:13:59;22.00;87.30
80540;DHT22;69869;48.036;15.780;2023-08-01T03:16:24;22.10;87.40
80540;DHT22;69869;48.036;15.780;2023-08-01T03:18:50;22.10;87.40
80540;DHT22;69869;48.036;15.780;2023-08-01T03:21:15;22.10;87.40
80540;DHT22;69869;48.036;15.780;2023-08-01T03:23:41;22.10;87.20
80540;DHT22;69869;48.036;15.780;2023-08-01T03:26:07;22.10;87.40
80540;DHT22;69869;48.036;15.780;2023-08-01T03:28:33;22.10;87.40
80540;DHT22;69869;48.036;15.780;2023-08-01T03:30:58;22.10;87.40
80540;DHT22;69869;48.036;15.780;2023-08-01T03:33:24;22.00;87.30
80540;DHT22;69869;48.036;15.780;2023-08-01T03:35:50;22.10;87.40
80540;DHT22;69869;48.036;15.780;2023-08-01T03:38:15;22.00;87.30
80540;DHT22;69869;48.036;15.780;2023-08-01T03:40:41;22.10;87.40
80540;DHT22;69869;48.036;15.780;2023-08-01T03:43:07;22.10;87.40
80540;DHT22;69869;48.036;15.780;2023-08-01T03:45:34;22.10;87.50
80540;DHT22;69869;48.036;15.780;2023-08-01T03:48:00;22.10;87.50
80540;DHT22;69869;48.036;15.780;2023-08-01T03:50:26;22.10;87.30
80540;DHT22;69869;48.036;15.780;2023-08-01T03:52:51;22.10;87.40
80540;DHT22;69869;48.036;15.780;2023-08-01T03:55:17;22.10;87.40
80540;DHT22;69869;48.036;15.780;2023-08-01T03:57:43;22.10;87.50
80540;DHT22;69869;48.036;15.780;2023-08-01T04:00:09;22.10;87.40
80540;DHT22;69869;48.036;15.780;2023-08-01T04:02:43;22.10;87.30
80540;DHT22;69869;48.036;15.780;2023-08-01T04:05:09;22.00;87.30
80540;DHT22;69869;48.036;15.780;2023-08-01T04:07:36;22.10;87.50
80540;DHT22;69869;48.036;15.780;2023-08-01T04:10:02;22.10;87.40
80540;DHT22;69869;48.036;15.780;2023-08-01T04:12:30;22.10;87.50
80540;DHT22;69869;48.036;15.780;2023-08-01T04:14:56;22.00;87.30
80540;DHT22;69869;48.036;15.780;2023-08-01T04:17:21;22.10;87.40
80540;DHT22;69869;48.036;15.780;2023-08-01T04:19:47;22.00;87.30
80540;DHT22;69869;48.036;15.780;2023-08-01T04:22:13;22.10;87.40
80540;DHT22;69869;48.036;15.780;2023-08-01T04:24:38;22.10;87.20
80540;DHT22;69869;48.036;15.780;2023-08-01T04:27:04;22.10;87.50
80540;DHT22;69869;48.036;15.780;2023-08-01T04:29:30;22.00;87.30
80540;DHT22;69869;48.036;15.780;2023-08-01T04:31:56;22.00;87.20
80540;DHT22;69869;48.036;15.780;2023-08-01T04:34:22;22.10;87.40
80540;DHT22;69869;48.036;15.780;2023-08-01T04:36:48;22.10;87.50
80540;DHT22;69869;48.036;15.780;2023-08-01T04:39:13;22.10;87.40
80540;DHT22;69869;48.036;15.780;2023-08-01T04:41:39;22.10;87.50
80540;DHT22;69869;48.036;15.780;2023-08-01T04:44:04;22.00;87.30
80540;DHT22;69869;48.036;15.780;2023-08-01T04:46:30;22.00;87.30
80540;DHT22;69869;48.036;15.780;2023-08-01T04:48:56;22.00;87.30
80540;DHT22;69869;48.036;15.780;2023-08-01T04:51:21;22.10;87.50
80540;DHT22;69869;48.036;15.780;2023-08-01T04:53:47;22.00;87.30
80540;DHT22;69869;48.036;15.780;2023-08-01T04:56:13;22.10;87.50
80540;DHT22;69869;48.036;15.780;2023-08-01T04:58:38;22.00;87.20
80540;DHT22;69869;48.036;15.780;2023-08-01T05:01:04;22.10;87.40
80540;DHT22;69869;48.036;15.780;2023-08-01T05:03:29;22.00;87.30
80540;DHT22;69869;48.036;15.780;2023-08-01T05:05:55;22.00;87.40
80540;DHT22;69869;48.036;15.780;2023-08-01T05:08:21;22.00;87.40
80540;DHT22;69869;48.036;15.780;2023-08-01T05:10:46;22.10;87.60
80540;DHT22;69869;48.036;15.780;2023-08-01T05:13:12;22.00;87.30
80540;DHT22;69869;48.036;15.780;2023-08-01T05:15:38;22.00;87.10
80540;DHT22;69869;48.036;15.780;2023-08-01T05:18:03;22.10;87.40
80540;DHT22;69869;48.036;15.780;2023-08-01T05:20:29;22.00;87.30
80540;DHT22;69869;48.036;15.780;2023-08-01T05:22:59;22.00;87.40
80540;DHT22;69869;48.036;15.780;2023-08-01T05:25:25;22.00;87.40
80540;DHT22;69869;48.036;15.780;2023-08-01T05:27:50;22.00;87.40
80540;DHT22;69869;48.036;15.780;2023-08-01T05:30:16;22.10;87.50
80540;DHT22;69869;48.036;15.780;2023-08-01T05:32:42;22.00;87.30
80540;DHT22;69869;48.036;15.780;2023-08-01T05:35:09;22.00;87.40
80540;DHT22;69869;48.036;15.780;2023-08-01T05:37:35;22.00;87.40
80540;DHT22;69869;48.036;15.780;2023-08-01T05:40:02;22.00;87.30
80540;DHT22;69869;48.036;15.780;2023-08-01T05:42:29;22.00;87.40
80540;DHT22;69869;48.036;15.780;2023-08-01T05:44:54;22.00;87.40
80540;DHT22;69869;48.036;15.780;2023-08-01T05:47:20;22.00;87.40
80540;DHT22;69869;48.036;15.780;2023-08-01T05:49:48;22.00;87.20
80540;DHT22;69869;48.036;15.780;2023-08-01T05:52:13;22.00;87.30
80540;DHT22;69869;48.036;15.780;2023-08-01T05:54:39;22.00;87.40
80540;DHT22;69869;48.036;15.780;2023-08-01T05:57:05;22.00;87.20
80540;DHT22;69869;48.036;15.780;2023-08-01T05:59:31;22.00;87.40
80540;DHT22;69869;48.036;15.780;2023-08-01T06:01:57;22.00;87.40
80540;DHT22;69869;48.036;15.780;2023-08-01T06:04:23;22.00;87.20
80540;DHT22;69869;48.036;15.780;2023-08-01T06:06:48;22.00;87.40
80540;DHT22;69869;48.036;15.780;2023-08-01T06:09:14;22.00;87.40
80540;DHT22;69869;48.036;15.780;2023-08-01T06:11:40;22.00;87.40
80540;DHT22;69869;48.036;15.780;2023-08-01T06:14:06;22.00;87.30
80540;DHT22;69869;48.036;15.780;2023-08-01T06:16:31;22.00;87.40
80540;DHT22;69869;48.036;15.780;2023-08-01T06:18:58;22.00;87.40
80540;DHT22;69869;48.036;15.780;2023-08-01T06:21:24;22.00;87.30
80540;DHT22;69869;48.036;15.780;2023-08-01T06:23:49;22.00;87.70
80540;DHT22;69869;48.036;15.780;2023-08-01T06:26:15;22.00;87.00
80540;DHT22;69869;48.036;15.780;2023-08-01T06:28:42;22.00;87.40
80540;DHT22;69869;48.036;15.780;2023-08-01T06:31:07;22.00;87.40
80540;DHT22;69869;48.036;15.780;2023-08-01T06:33:33;22.00;87.50
80540;DHT22;69869;48.036;15.780;2023-08-01T06:35:58;22.00;87.40
80540;DHT22;69869;48.036;15.780;2023-08-01T06:38:24;22.00;86.80
80540;DHT22;69869;48.036;15.780;2023-08-01T06:40:50;22.00;87.10
80540;DHT22;69869;48.036;15.780;2023-08-01T06:43:15;22.00;87.50
80540;DHT22;69869;48.036;15.780;2023-08-01T06:45:41;22.00;87.40
80540;DHT22;69869;48.036;15.780;2023-08-01T06:48:07;22.00;87.40
80540;DHT22;69869;48.036;15.780;2023-08-01T06:50:33;22.00;87.50
80540;DHT22;69869;48.036;15.780;2023-08-01T06:52:59;22.00;87.30
80540;DHT22;69869;48.036;15.780;2023-08-01T06:55:26;22.00;87.10
80540;DHT22;69869;48.036;15.780;2023-08-01T06:57:52;22.00;87.40
80540;DHT22;69869;48.036;15.780;2023-08-01T07:00:17;22.00;87.40
80540;DHT22;69869;48.036;15.780;2023-08-01T07:02:43;22.00;87.40
80540;DHT22;69869;48.036;15.780;2023-08-01T07:05:09;22.00;87.60
80540;DHT22;69869;48.036;15.780;2023-08-01T07:07:35;22.00;87.50
80540;DHT22;69869;48.036;15.780;2023-08-01T07:10:00;22.00;87.00
80540;DHT22;69869;48.036;15.780;2023-08-01T07:12:26;22.00;86.50
80540;DHT22;69869;48.036;15.780;2023-08-01T07:14:52;22.00;87.40
80540;DHT22;69869;48.036;15.780;2023-08-01T07:17:17;22.00;87.50
80540;DHT22;69869;48.036;15.780;2023-08-01T07:19:43;22.00;87.50
80540;DHT22;69869;48.036;15.780;2023-08-01T07:22:09;22.00;87.40
80540;DHT22;69869;48.036;15.780;2023-08-01T07:24:34;22.00;87.40
80540;DHT22;69869;48.036;15.780;2023-08-01T07:27:00;22.00;87.30
80540;DHT22;69869;48.036;15.780;2023-08-01T07:29:26;22.00;87.00
80540;DHT22;69869;48.036;15.780;2023-08-01T07:31:51;22.00;87.30
80540;DHT22;69869;48.036;15.780;2023-08-01T07:34:17;22.00;87.10
80540;DHT22;69869;48.036;15.780;2023-08-01T07:36:43;22.00;87.30
80540;DHT22;69869;48.036;15.780;2023-08-01T07:39:08;22.00;87.40
80540;DHT22;69869;48.036;15.780;2023-08-01T07:41:34;22.00;87.60
80540;DHT22;69869;48.036;15.780;2023-08-01T07:44:01;22.00;87.60
80540;DHT22;69869;48.036;15.780;2023-08-01T07:46:31;22.00;87.60
80540;DHT22;69869;48.036;15.780;2023-08-01T07:48:58;22.00;87.60
80540;DHT22;69869;48.036;15.780;2023-08-01T07:51:25;22.00;87.60
80540;DHT22;69869;48.036;15.780;2023-08-01T07:53:52;22.00;87.60
80540;DHT22;69869;48.036;15.780;2023-08-01T07:56:19;22.00;87.60
80540;DHT22;69869;48.036;15.780;2023-08-01T07:58:45;22.00;87.60
80540;DHT22;69869;48.036;15.780;2023-08-01T08:01:10;22.00;87.50
80540;DHT22;69869;48.036;15.780;2023-08-01T08:03:36;22.00;87.60
80540;DHT22;69869;48.036;15.780;2023-08-01T08:06:02;21.90;87.50
80540;DHT22;69869;48.036;15.780;2023-08-01T08:08:29;22.00;87.60
80540;DHT22;69869;48.036;15.780;2023-08-01T08:10:55;22.00;87.60
80540;DHT22;69869;48.036;15.780;2023-08-01T08:13:21;22.00;87.60
80540;DHT22;69869;48.036;15.780;2023-08-01T08:15:47;22.00;87.50
80540;DHT22;69869;48.036;15.780;2023-08-01T08:18:12;22.00;87.60
80540;DHT22;69869;48.036;15.780;2023-08-01T08:20:43;22.00;87.50
80540;DHT22;69869;48.036;15.780;2023-08-01T08:23:10;22.00;87.60
80540;DHT22;69869;48.036;15.780;2023-08-01T08:25:36;21.90;87.60
80540;DHT22;69869;48.036;15.780;2023-08-01T08:28:02;22.00;87.60
80540;DHT22;69869;48.036;15.780;2023-08-01T08:30:28;22.00;87.70
80540;DHT22;69869;48.036;15.780;2023-08-01T08:32:53;22.00;87.70
80540;DHT22;69869;48.036;15.780;2023-08-01T08:35:19;21.90;87.60
80540;DHT22;69869;48.036;15.780;2023-08-01T08:37:45;22.00;87.70
80540;DHT22;69869;48.036;15.780;2023-08-01T08:40:12;22.00;87.70
80540;DHT22;69869;48.036;15.780;2023-08-01T08:42:39;22.00;87.70
80540;DHT22;69869;48.036;15.780;2023-08-01T08:45:06;22.00;87.70
80540;DHT22;69869;48.036;15.780;2023-08-01T08:47:35;22.00;87.70
80540;DHT22;69869;48.036;15.780;2023-08-01T08:50:02;22.00;87.70
80540;DHT22;69869;48.036;15.780;2023-08-01T08:52:27;22.00;87.70
80540;DHT22;69869;48.036;15.780;2023-08-01T08:54:54;22.00;87.80
80540;DHT22;69869;48.036;15.780;2023-08-01T08:57:21;21.90;87.70
80540;DHT22;69869;48.036;15.780;2023-08-01T08:59:48;22.00;87.80
80540;DHT22;69869;48.036;15.780;2023-08-01T09:02:15;21.90;87.60
80540;DHT22;69869;48.036;15.780;2023-08-01T09:04:41;22.00;87.70
80540;DHT22;69869;48.036;15.780;2023-08-01T09:07:09;22.00;87.70
80540;DHT22;69869;48.036;15.780;2023-08-01T09:09:36;21.90;87.70
80540;DHT22;69869;48.036;15.780;2023-08-01T09:12:03;21.90;87.60
80540;DHT22;69869;48.036;15.780;2023-08-01T09:14:29;22.00;87.80
80540;DHT22;69869;48.036;15.780;2023-08-01T09:17:05;21.90;87.60
80540;DHT22;69869;48.036;15.780;2023-08-01T09:19:31;22.00;87.80
80540;DHT22;69869;48.036;15.780;2023-08-01T09:21:57;22.00;87.80
80540;DHT22;69869;48.036;15.780;2023-08-01T09:24:23;22.00;87.80
80540;DHT22;69869;48.036;15.780;2023-08-01T09:26:49;22.00;87.80
80540;DHT22;69869;48.036;15.780;2023-08-01T09:29:19;21.90;87.70
80540;DHT22;69869;48.036;15.780;2023-08-01T09:31:45;22.00;87.80
80540;DHT22;69869;48.036;15.780;2023-08-01T09:34:24;21.90;87.70
80540;DHT22;69869;48.036;15.780;2023-08-01T09:36:50;21.90;87.80
80540;DHT22;69869;48.036;15.780;2023-08-01T09:39:20;21.90;87.70
80540;DHT22;69869;48.036;15.780;2023-08-01T09:41:58;21.90;87.70
80540;DHT22;69869;48.036;15.780;2023-08-01T09:44:25;22.00;87.90
80540;DHT22;69869;48.036;15.780;2023-08-01T09:49:22;21.90;87.70
80540;DHT22;69869;48.036;15.780;2023-08-01T09:51:48;22.00;87.80
80540;DHT22;69869;48.036;15.780;2023-08-01T09:54:15;21.90;87.70
80540;DHT22;69869;48.036;15.780;2023-08-01T09:56:44;21.90;87.80
80540;DHT22;69869;48.036;15.780;2023-08-01T09:59:11;21.90;87.80
80540;DHT22;69869;48.036;15.780;2023-08-01T10:01:38;21.90;87.80
80540;DHT22;69869;48.036;15.780;2023-08-01T10:04:07;21.90;87.80
80540;DHT22;69869;48.036;15.780;2023-08-01T10:06:37;22.00;87.90
80540;DHT22;69869;48.036;15.780;2023-08-01T10:09:03;21.90;87.80
80540;DHT22;69869;48.036;15.780;2023-08-01T10:11:33;21.90;87.80
80540;DHT22;69869;48.036;15.780;2023-08-01T10:14:00;21.90;87.90
80540;DHT22;69869;48.036;15.780;2023-08-01T10:16:28;22.00;87.90
80540;DHT22;69869;48.036;15.780;2023-08-01T10:18:54;21.90;87.80
80540;DHT22;69869;48.036;15.780;2023-08-01T10:21:22;21.90;87.80
80540;DHT22;69869;48.036;15.780;2023-08-01T10:23:48;21.90;87.90
80540;DHT22;69869;48.036;15.780;2023-08-01T10:26:14;21.90;87.80
80540;DHT22;69869;48.036;15.780;2023-08-01T10:28:42;21.90;87.80
80540;DHT22;69869;48.036;15.780;2023-08-01T10:31:16;21.90;87.90
80540;DHT22;69869;48.036;15.780;2023-08-01T10:33:43;21.90;88.10
80540;DHT22;69869;48.036;15.780;2023-08-01T10:38:59;21.90;87.90
80540;DHT22;69869;48.036;15.780;2023-08-01T10:44:16;21.90;87.90
80540;DHT22;69869;48.036;15.780;2023-08-01T10:47:01;21.90;87.90
80540;DHT22;69869;48.036;15.780;2023-08-01T10:49:34;21.90;87.90
80540;DHT22;69869;48.036;15.780;2023-08-01T10:52:00;21.90;87.90
80540;DHT22;69869;48.036;15.780;2023-08-01T10:54:26;21.90;87.80
80540;DHT22;69869;48.036;15.780;2023-08-01T10:56:54;21.90;87.90
80540;DHT22;69869;48.036;15.780;2023-08-01T10:59:21;21.90;87.90
80540;DHT22;69869;48.036;15.780;2023-08-01T11:01:57;21.90;88.00
80540;DHT22;69869;48.036;15.780;2023-08-01T11:04:24;21.90;87.90
80540;DHT22;69869;48.036;15.780;2023-08-01T11:06:51;21.90;87.90
80540;DHT22;69869;48.036;15.780;2023-08-01T11:09:22;21.90;88.60
80540;DHT22;69869;48.036;15.780;2023-08-01T11:11:51;21.90;88.00
80540;DHT22;69869;48.036;15.780;2023-08-01T11:14:23;21.90;87.90
80540;DHT22;69869;48.036;15.780;2023-08-01T11:16:50;21.90;87.90
80540;DHT22;69869;48.036;15.780;2023-08-01T11:19:27;21.90;87.80
80540;DHT22;69869;48.036;15.780;2023-08-01T11:21:54;21.90;88.00
80540;DHT22;69869;48.036;15.780;2023-08-01T11:24:24;21.90;88.00
80540;DHT22;69869;48.036;15.780;2023-08-01T11:26:51;21.90;88.00
80540;DHT22;69869;48.036;15.780;2023-08-01T11:29:18;21.90;88.00
80540;DHT22;69869;48.036;15.780;2023-08-01T11:31:59;21.90;88.00
80540;DHT22;69869;48.036;15.780;2023-08-01T11:34:25;21.90;88.00
80540;DHT22;69869;48.036;15.780;2023-08-01T11:36:51;21.90;88.00
80540;DHT22;69869;48.036;15.780;2023-08-01T11:39:18;21.90;88.10
80540;DHT22;69869;48.036;15.780;2023-08-01T11:41:44;21.90;88.00
80540;DHT22;69869;48.036;15.780;2023-08-01T11:44:10;21.90;88.10
80540;DHT22;69869;48.036;15.780;2023-08-01T11:46:37;21.90;88.00
80540;DHT22;69869;48.036;15.780;2023-08-01T11:49:07;21.90;87.90
80540;DHT22;69869;48.036;15.780;2023-08-01T11:51:43;21.90;88.10
80540;DHT22;69869;48.036;15.780;2023-08-01T11:54:10;21.90;88.10
80540;DHT22;69869;48.036;15.780;2023-08-01T11:56:37;21.90;88.10
80540;DHT22;69869;48.036;15.780;2023-08-01T11:59:10;21.90;88.00
80540;DHT22;69869;48.036;15.780;2023-08-01T12:01:49;21.90;88.00
80540;DHT22;69869;48.036;15.780;2023-08-01T12:04:25;21.90;88.10
80540;DHT22;69869;48.036;15.780;2023-08-01T12:06:51;21.90;88.10
80540;DHT22;69869;48.036;15.780;2023-08-01T12:09:19;21.90;88.20
80540;DHT22;69869;48.036;15.780;2023-08-01T12:11:45;21.90;88.10
80540;DHT22;69869;48.036;15.780;2023-08-01T12:14:13;21.90;88.10
80540;DHT22;69869;48.036;15.780;2023-08-01T12:16:44;21.90;88.20
80540;DHT22;69869;48.036;15.780;2023-08-01T12:19:17;21.90;88.20
80540;DHT22;69869;48.036;15.780;2023-08-01T12:21:44;21.90;88.20
80540;DHT22;69869;48.036;15.780;2023-08-01T12:24:09;21.90;88.20
80540;DHT22;69869;48.036;15.780;2023-08-01T12:26:35;21.90;88.10
80540;DHT22;69869;48.036;15.780;2023-08-01T12:29:01;21.90;88.20
80540;DHT22;69869;48.036;15.780;2023-08-01T12:31:26;21.90;88.20
80540;DHT22;69869;48.036;15.780;2023-08-01T12:33:52;21.90;88.30
80540;DHT22;69869;48.036;15.780;2023-08-01T12:36:19;21.90;87.60
80540;DHT22;69869;48.036;15.780;2023-08-01T12:38:45;21.90;88.00
80540;DHT22;69869;48.036;15.780;2023-08-01T12:41:11;21.90;88.10
80540;DHT22;69869;48.036;15.780;2023-08-01T12:43:37;21.90;88.10
80540;DHT22;69869;48.036;15.780;2023-08-01T12:46:02;21.90;88.20
80540;DHT22;69869;48.036;15.780;2023-08-01T12:48:28;21.90;88.20
80540;DHT22;69869;48.036;15.780;2023-08-01T12:50:54;21.90;88.20
80540;DHT22;69869;48.036;15.780;2023-08-01T12:53:20;21.90;88.60
80540;DHT22;69869;48.036;15.780;2023-08-01T12:55:48;21.80;87.90
80540;DHT22;69869;48.036;15.780;2023-08-01T12:58:14;21.80;88.00
80540;DHT22;69869;48.036;15.780;2023-08-01T13:00:41;21.90;88.20
80540;DHT22;69869;48.036;15.780;2023-08-01T13:03:07;21.90;88.30
80540;DHT22;69869;48.036;15.780;2023-08-01T13:05:37;21.90;88.30
80540;DHT22;69869;48.036;15.780;2023-08-01T13:08:03;21.90;88.40
80540;DHT22;69869;48.036;15.780;2023-08-01T13:10:33;21.90;88.40
80540;DHT22;69869;48.036;15.780;2023-08-01T13:12:59;21.90;88.40
80540;DHT22;69869;48.036;15.780;2023-08-01T13:15:25;21.90;88.40
80540;DHT22;69869;48.036;15.780;2023-08-01T13:17:51;21.90;88.40
80540;DHT22;69869;48.036;15.780;2023-08-01T13:20:17;21.90;88.40
80540;DHT22;69869;48.036;15.780;2023-08-01T13:22:45;21.80;88.30
80540;DHT22;69869;48.036;15.780;2023-08-01T13:25:12;21.80;88.30
80540;DHT22;69869;48.036;15.780;2023-08-01T13:27:38;21.90;88.40
80540;DHT22;69869;48.036;15.780;2023-08-01T13:30:04;21.80;88.40
80540;DHT22;69869;48.036;15.780;2023-08-01T13:32:29;21.90;88.40
80540;DHT22;69869;48.036;15.780;2023-08-01T13:34:55;21.90;88.40
80540;DHT22;69869;48.036;15.780;2023-08-01T13:37:20;21.90;88.40
80540;DHT22;69869;48.036;15.780;2023-08-01T13:39:46;21.80;88.30
80540;DHT22;69869;48.036;15.780;2023-08-01T13:42:12;21.80;88.30
80540;DHT22;69869;48.036;15.780;2023-08-01T13:44:39;21.90;88.40
80540;DHT22;69869;48.036;15.780;2023-08-01T13:47:05;21.80;88.30
80540;DHT22;69869;48.036;15.780;2023-08-01T13:49:31;21.80;88.40
80540;DHT22;69869;48.036;15.780;2023-08-01T13:51:56;21.80;88.40
80540;DHT22;69869;48.036;15.780;2023-08-01T13:54:22;21.80;88.40
80540;DHT22;69869;48.036;15.780;2023-08-01T13:56:47;21.90;88.40
80540;DHT22;69869;48.036;15.780;2023-08-01T13:59:14;21.90;89.10
80540;DHT22;69869;48.036;15.780;2023-08-01T14:01:40;21.80;88.40
80540;DHT22;69869;48.036;15.780;2023-08-01T14:04:06;21.90;88.50
80540;DHT22;69869;48.036;15.780;2023-08-01T14:06:32;21.80;88.40
80540;DHT22;69869;48.036;15.780;2023-08-01T14:08:57;21.80;88.40
80540;DHT22;69869;48.036;15.780;2023-08-01T14:11:23;21.80;88.40
80540;DHT22;69869;48.036;15.780;2023-08-01T14:13:49;21.80;88.30
80540;DHT22;69869;48.036;15.780;2023-08-01T14:16:14;21.90;88.50
80540;DHT22;69869;48.036;15.780;2023-08-01T14:18:42;21.90;88.60
80540;DHT22;69869;48.036;15.780;2023-08-01T14:21:08;21.90;88.50
80540;DHT22;69869;48.036;15.780;2023-08-01T14:23:34;21.80;88.40
80540;DHT22;69869;48.036;15.780;2023-08-01T14:25:59;21.90;88.50
80540;DHT22;69869;48.036;15.780;2023-08-01T14:28:25;21.80;88.40
80540;DHT22;69869;48.036;15.780;2023-08-01T14:30:51;21.80;88.50
80540;DHT22;69869;48.036;15.780;2023-08-01T14:33:16;21.80;88.40
80540;DHT22;69869;48.036;15.780;2023-08-01T14:35:42;21.80;88.50
80540;DHT22;69869;48.036;15.780;2023-08-01T14:38:08;21.80;88.50
80540;DHT22;69869;48.036;15.780;2023-08-01T14:40:34;21.80;88.50
80540;DHT22;69869;48.036;15.780;2023-08-01T14:43:01;21.80;88.50
80540;DHT22;69869;48.036;15.780;2023-08-01T14:45:27;21.80;89.20
80540;DHT22;69869;48.036;15.780;2023-08-01T14:47:53;21.80;88.50
80540;DHT22;69869;48.036;15.780;2023-08-01T14:50:19;21.80;88.40
80540;DHT22;69869;48.036;15.780;2023-08-01T14:52:44;21.80;88.40
80540;DHT22;69869;48.036;15.780;2023-08-01T14:55:10;21.80;88.40
80540;DHT22;69869;48.036;15.780;2023-08-01T14:57:36;21.80;88.40
80540;DHT22;69869;48.036;15.780;2023-08-01T15:00:02;21.80;88.50
80540;DHT22;69869;48.036;15.780;2023-08-01T15:02:29;21.80;88.40
80540;DHT22;69869;48.036;15.780;2023-08-01T15:04:55;21.80;88.40
80540;DHT22;69869;48.036;15.780;2023-08-01T15:07:25;21.80;89.10
80540;DHT22;69869;48.036;15.780;2023-08-01T15:09:51;21.80;88.40
80540;DHT22;69869;48.036;15.780;2023-08-01T15:12:18;21.80;88.40
80540;DHT22;69869;48.036;15.780;2023-08-01T15:14:58;21.80;88.30
80540;DHT22;69869;48.036;15.780;2023-08-01T15:17:24;21.80;88.30
80540;DHT22;69869;48.036;15.780;2023-08-01T15:19:50;21.80;87.90